sensor_id;sensor_type;location;lat;lon;timestamp;P1;durP1;ratioP1;P2;durP2;ratioP2
67757;SDS011;54562;47.620;18.786;2022-07-29T00:01:39;6.90;;;3.80;;
67757;SDS011;54562;47.620;18.786;2022-07-29T00:04:44;8.70;;;3.90;;
67757;SDS011;54562;47.620;18.786;2022-07-29T00:07:49;7.60;;;3.60;;
67757;SDS011;54562;47.620;18.786;2022-07-29T00:10:53;7.60;;;4.00;;
67757;SDS011;54562;47.620;18.786;2022-07-29T00:13:58;7.30;;;4.00;;
67757;SDS011;54562;47.620;18.786;2022-07-29T00:17:03;6.90;;;4.00;;
67757;SDS011;54562;47.620;18.786;2022-07-29T00:20:10;6.90;;;3.90;;
67757;SDS011;54562;47.620;18.786;2022-07-29T00:23:15;7.50;;;3.60;;
67757;SDS011;54562;47.620;18.786;2022-07-29T00:26:19;6.40;;;3.80;;
67757;SDS011;54562;47.620;18.786;2022-07-29T00:29:24;7.60;;;3.80;;
67757;SDS011;54562;47.620;18.786;2022-07-29T00:32:37;8.10;;;4.00;;
67757;SDS011;54562;47.620;18.786;2022-07-29T00:35:43;8.30;;;4.00;;
67757;SDS011;54562;47.620;18.786;2022-07-29T00:38:48;9.00;;;4.20;;
67757;SDS011;54562;47.620;18.786;2022-07-29T00:41:53;6.60;;;3.80;;
67757;SDS011;54562;47.620;18.786;2022-07-29T00:45:00;7.10;;;4.00;;
67757;SDS011;54562;47.620;18.786;2022-07-29T00:48:08;6.70;;;3.70;;
67757;SDS011;54562;47.620;18.786;2022-07-29T00:51:13;12.40;;;4.00;;
67757;SDS011;54562;47.620;18.786;2022-07-29T00:54:18;5.90;;;3.60;;
67757;SDS011;54562;47.620;18.786;2022-07-29T00:57:23;7.80;;;3.90;;
67757;SDS011;54562;47.620;18.786;2022-07-29T01:00:29;7.20;;;3.90;;
67757;SDS011;54562;47.620;18.786;2022-07-29T01:03:34;6.60;;;3.90;;
67757;SDS011;54562;47.620;18.786;2022-07-29T01:06:39;7.90;;;4.00;;
67757;SDS011;54562;47.620;18.786;2022-07-29T01:09:45;6.70;;;3.90;;
67757;SDS011;54562;47.620;18.786;2022-07-29T01:12:52;7.20;;;3.90;;
67757;SDS011;54562;47.620;18.786;2022-07-29T01:16:07;6.80;;;3.90;;
67757;SDS011;54562;47.620;18.786;2022-07-29T01:19:33;7.20;;;4.10;;
67757;SDS011;54562;47.620;18.786;2022-07-29T01:23:07;6.90;;;3.80;;
67757;SDS011;54562;47.620;18.786;2022-07-29T01:26:46;9.00;;;4.40;;
67757;SDS011;54562;47.620;18.786;2022-07-29T01:29:55;6.40;;;3.80;;
67757;SDS011;54562;47.620;18.786;2022-07-29T01:33:05;7.60;;;4.10;;
67757;SDS011;54562;47.620;18.786;2022-07-29T01:36:16;6.50;;;3.80;;
67757;SDS011;54562;47.620;18.786;2022-07-29T01:39:31;7.40;;;4.10;;
67757;SDS011;54562;47.620;18.786;2022-07-29T01:42:43;7.90;;;4.20;;
67757;SDS011;54562;47.620;18.786;2022-07-29T01:45:53;6.50;;;4.00;;
67757;SDS011;54562;47.620;18.786;2022-07-29T01:49:08;8.30;;;4.30;;
67757;SDS011;54562;47.620;18.786;2022-07-29T01:52:21;6.10;;;4.00;;
67757;SDS011;54562;47.620;18.786;2022-07-29T01:55:34;6.80;;;4.40;;
67757;SDS011;54562;47.620;18.786;2022-07-29T01:58:43;8.10;;;4.40;;
67757;SDS011;54562;47.620;18.786;2022-07-29T02:01:49;6.80;;;4.10;;
67757;SDS011;54562;47.620;18.786;2022-07-29T02:04:58;7.10;;;4.10;;
67757;SDS011;54562;47.620;18.786;2022-07-29T02:08:07;8.20;;;3.80;;
67757;SDS011;54562;47.620;18.786;2022-07-29T02:11:13;9.80;;;4.40;;
67757;SDS011;54562;47.620;18.786;2022-07-29T02:14:20;6.40;;;4.10;;
67757;SDS011;54562;47.620;18.786;2022-07-29T02:17:29;7.20;;;4.30;;
67757;SDS011;54562;47.620;18.786;2022-07-29T02:20:42;8.50;;;4.40;;
67757;SDS011;54562;47.620;18.786;2022-07-29T02:23:49;8.20;;;4.30;;
67757;SDS011;54562;47.620;18.786;2022-07-29T02:26:56;6.80;;;4.10;;
67757;SDS011;54562;47.620;18.786;2022-07-29T02:30:06;7.10;;;4.50;;
67757;SDS011;54562;47.620;18.786;2022-07-29T02:33:15;7.30;;;4.30;;
67757;SDS011;54562;47.620;18.786;2022-07-29T02:36:23;8.10;;;4.30;;
67757;SDS011;54562;47.620;18.786;2022-07-29T02:39:29;8.20;;;4.50;;
67757;SDS011;54562;47.620;18.786;2022-07-29T02:42:37;9.00;;;4.40;;
67757;SDS011;54562;47.620;18.786;2022-07-29T02:48:58;7.20;;;4.20;;
67757;SDS011;54562;47.620;18.786;2022-07-29T02:52:11;7.00;;;4.40;;
67757;SDS011;54562;47.620;18.786;2022-07-29T02:55:29;7.50;;;4.50;;
67757;SDS011;54562;47.620;18.786;2022-07-29T02:58:39;7.90;;;4.30;;
67757;SDS011;54562;47.620;18.786;2022-07-29T03:01:50;6.80;;;4.60;;
67757;SDS011;54562;47.620;18.786;2022-07-29T03:04:56;7.50;;;4.50;;
67757;SDS011;54562;47.620;18.786;2022-07-29T03:08:05;9.40;;;4.40;;
67757;SDS011;54562;47.620;18.786;2022-07-29T03:11:13;7.90;;;4.50;;
67757;SDS011;54562;47.620;18.786;2022-07-29T03:14:19;7.40;;;4.40;;
67757;SDS011;54562;47.620;18.786;2022-07-29T03:17:26;6.50;;;4.40;;
67757;SDS011;54562;47.620;18.786;2022-07-29T03:20:31;8.50;;;4.40;;
67757;SDS011;54562;47.620;18.786;2022-07-29T03:23:36;8.00;;;4.90;;
67757;SDS011;54562;47.620;18.786;2022-07-29T03:26:46;8.40;;;4.50;;
67757;SDS011;54562;47.620;18.786;2022-07-29T03:29:51;8.40;;;4.60;;
67757;SDS011;54562;47.620;18.786;2022-07-29T03:32:56;9.50;;;4.40;;
67757;SDS011;54562;47.620;18.786;2022-07-29T03:36:01;7.60;;;4.70;;
67757;SDS011;54562;47.620;18.786;2022-07-29T03:39:06;9.30;;;4.60;;
67757;SDS011;54562;47.620;18.786;2022-07-29T03:42:13;8.50;;;4.90;;
67757;SDS011;54562;47.620;18.786;2022-07-29T03:45:22;7.30;;;4.70;;
67757;SDS011;54562;47.620;18.786;2022-07-29T03:48:30;7.90;;;4.50;;
67757;SDS011;54562;47.620;18.786;2022-07-29T03:51:38;6.40;;;4.30;;
67757;SDS011;54562;47.620;18.786;2022-07-29T03:54:44;6.80;;;4.80;;
67757;SDS011;54562;47.620;18.786;2022-07-29T03:57:50;8.00;;;4.70;;
67757;SDS011;54562;47.620;18.786;2022-07-29T04:00:55;8.10;;;4.90;;
67757;SDS011;54562;47.620;18.786;2022-07-29T04:04:02;9.70;;;4.90;;
67757;SDS011;54562;47.620;18.786;2022-07-29T04:07:12;8.00;;;4.20;;
67757;SDS011;54562;47.620;18.786;2022-07-29T04:10:18;8.20;;;4.60;;
67757;SDS011;54562;47.620;18.786;2022-07-29T04:13:34;6.70;;;4.50;;
67757;SDS011;54562;47.620;18.786;2022-07-29T04:16:39;8.10;;;4.70;;
67757;SDS011;54562;47.620;18.786;2022-07-29T04:19:43;8.70;;;4.70;;
67757;SDS011;54562;47.620;18.786;2022-07-29T04:22:48;7.30;;;4.70;;
67757;SDS011;54562;47.620;18.786;2022-07-29T04:25:53;6.90;;;4.40;;
67757;SDS011;54562;47.620;18.786;2022-07-29T04:28:58;7.60;;;4.70;;
67757;SDS011;54562;47.620;18.786;2022-07-29T04:32:03;7.50;;;4.90;;
67757;SDS011;54562;47.620;18.786;2022-07-29T04:35:09;8.00;;;4.40;;
67757;SDS011;54562;47.620;18.786;2022-07-29T04:38:14;7.80;;;4.60;;
67757;SDS011;54562;47.620;18.786;2022-07-29T04:41:19;9.20;;;4.50;;
67757;SDS011;54562;47.620;18.786;2022-07-29T04:44:25;7.80;;;4.60;;
67757;SDS011;54562;47.620;18.786;2022-07-29T04:47:31;7.90;;;4.50;;
67757;SDS011;54562;47.620;18.786;2022-07-29T04:50:38;7.90;;;4.50;;
67757;SDS011;54562;47.620;18.786;2022-07-29T04:53:43;7.00;;;4.40;;
67757;SDS011;54562;47.620;18.786;2022-07-29T04:56:48;7.30;;;4.60;;
67757;SDS011;54562;47.620;18.786;2022-07-29T04:59:53;9.20;;;4.60;;
67757;SDS011;54562;47.620;18.786;2022-07-29T05:02:58;8.40;;;4.70;;
67757;SDS011;54562;47.620;18.786;2022-07-29T05:06:03;8.20;;;4.60;;
67757;SDS011;54562;47.620;18.786;2022-07-29T05:09:08;9.00;;;4.70;;
67757;SDS011;54562;47.620;18.786;2022-07-29T05:12:13;7.60;;;4.60;;
67757;SDS011;54562;47.620;18.786;2022-07-29T05:15:18;7.20;;;4.40;;
67757;SDS011;54562;47.620;18.786;2022-07-29T05:18:24;9.50;;;4.90;;
67757;SDS011;54562;47.620;18.786;2022-07-29T05:21:29;7.50;;;4.40;;
67757;SDS011;54562;47.620;18.786;2022-07-29T05:24:33;8.30;;;4.50;;
67757;SDS011;54562;47.620;18.786;2022-07-29T05:27:38;7.20;;;4.40;;
67757;SDS011;54562;47.620;18.786;2022-07-29T05:30:43;6.90;;;4.30;;
67757;SDS011;54562;47.620;18.786;2022-07-29T05:33:48;7.60;;;4.60;;
67757;SDS011;54562;47.620;18.786;2022-07-29T05:36:53;8.50;;;4.60;;
67757;SDS011;54562;47.620;18.786;2022-07-29T05:39:58;7.80;;;4.60;;
67757;SDS011;54562;47.620;18.786;2022-07-29T05:43:02;8.20;;;5.00;;
67757;SDS011;54562;47.620;18.786;2022-07-29T05:46:07;7.20;;;4.70;;
67757;SDS011;54562;47.620;18.786;2022-07-29T05:49:12;7.40;;;4.60;;
67757;SDS011;54562;47.620;18.786;2022-07-29T05:52:30;8.80;;;4.90;;
67757;SDS011;54562;47.620;18.786;2022-07-29T05:55:34;7.20;;;4.60;;
67757;SDS011;54562;47.620;18.786;2022-07-29T05:58:42;9.50;;;5.10;;
67757;SDS011;54562;47.620;18.786;2022-07-29T06:01:46;7.70;;;4.70;;
67757;SDS011;54562;47.620;18.786;2022-07-29T06:04:51;6.70;;;4.50;;
67757;SDS011;54562;47.620;18.786;2022-07-29T06:07:56;7.20;;;5.20;;
67757;SDS011;54562;47.620;18.786;2022-07-29T06:11:01;9.30;;;5.50;;
67757;SDS011;54562;47.620;18.786;2022-07-29T06:14:07;7.30;;;5.10;;
67757;SDS011;54562;47.620;18.786;2022-07-29T06:17:12;8.10;;;4.90;;
67757;SDS011;54562;47.620;18.786;2022-07-29T06:20:17;8.20;;;5.10;;
67757;SDS011;54562;47.620;18.786;2022-07-29T06:23:29;7.80;;;5.00;;
67757;SDS011;54562;47.620;18.786;2022-07-29T06:26:34;7.70;;;5.10;;
67757;SDS011;54562;47.620;18.786;2022-07-29T06:29:42;8.20;;;4.90;;
67757;SDS011;54562;47.620;18.786;2022-07-29T06:32:49;7.90;;;4.80;;
67757;SDS011;54562;47.620;18.786;2022-07-29T06:35:54;9.70;;;5.00;;
67757;SDS011;54562;47.620;18.786;2022-07-29T06:38:59;9.40;;;5.30;;
67757;SDS011;54562;47.620;18.786;2022-07-29T06:42:06;8.20;;;4.80;;
67757;SDS011;54562;47.620;18.786;2022-07-29T06:45:11;7.80;;;4.70;;
67757;SDS011;54562;47.620;18.786;2022-07-29T06:48:16;9.00;;;4.90;;
67757;SDS011;54562;47.620;18.786;2022-07-29T06:51:21;7.40;;;4.90;;
67757;SDS011;54562;47.620;18.786;2022-07-29T06:54:27;7.30;;;4.60;;
67757;SDS011;54562;47.620;18.786;2022-07-29T06:57:32;7.10;;;4.80;;
67757;SDS011;54562;47.620;18.786;2022-07-29T07:00:37;8.10;;;4.70;;
67757;SDS011;54562;47.620;18.786;2022-07-29T07:03:42;8.30;;;4.40;;
67757;SDS011;54562;47.620;18.786;2022-07-29T07:06:47;7.70;;;5.20;;
67757;SDS011;54562;47.620;18.786;2022-07-29T07:09:52;8.00;;;4.70;;
67757;SDS011;54562;47.620;18.786;2022-07-29T07:12:57;7.90;;;4.60;;
67757;SDS011;54562;47.620;18.786;2022-07-29T07:16:03;8.50;;;4.50;;
67757;SDS011;54562;47.620;18.786;2022-07-29T07:19:08;8.20;;;4.80;;
67757;SDS011;54562;47.620;18.786;2022-07-29T07:22:16;7.70;;;4.70;;
67757;SDS011;54562;47.620;18.786;2022-07-29T07:25:21;8.40;;;4.70;;
67757;SDS011;54562;47.620;18.786;2022-07-29T07:28:26;9.70;;;4.60;;
67757;SDS011;54562;47.620;18.786;2022-07-29T07:31:31;8.60;;;4.50;;
67757;SDS011;54562;47.620;18.786;2022-07-29T07:34:36;8.50;;;4.70;;
67757;SDS011;54562;47.620;18.786;2022-07-29T07:37:41;8.30;;;4.80;;
67757;SDS011;54562;47.620;18.786;2022-07-29T07:40:46;9.70;;;4.60;;
67757;SDS011;54562;47.620;18.786;2022-07-29T07:43:53;8.20;;;4.80;;
67757;SDS011;54562;47.620;18.786;2022-07-29T07:46:59;7.70;;;4.60;;
67757;SDS011;54562;47.620;18.786;2022-07-29T07:50:15;9.30;;;4.20;;
67757;SDS011;54562;47.620;18.786;2022-07-29T07:53:24;10.40;;;4.30;;
67757;SDS011;54562;47.620;18.786;2022-07-29T07:56:29;9.60;;;4.90;;
67757;SDS011;54562;47.620;18.786;2022-07-29T07:59:37;7.60;;;4.60;;
67757;SDS011;54562;47.620;18.786;2022-07-29T08:02:43;9.40;;;4.20;;
67757;SDS011;54562;47.620;18.786;2022-07-29T08:05:48;7.60;;;4.30;;
67757;SDS011;54562;47.620;18.786;2022-07-29T08:08:54;7.70;;;4.30;;
67757;SDS011;54562;47.620;18.786;2022-07-29T08:12:19;8.80;;;4.80;;
67757;SDS011;54562;47.620;18.786;2022-07-29T08:15:24;10.20;;;4.40;;
67757;SDS011;54562;47.620;18.786;2022-07-29T08:18:30;7.60;;;4.40;;
67757;SDS011;54562;47.620;18.786;2022-07-29T08:21:35;7.40;;;4.40;;
67757;SDS011;54562;47.620;18.786;2022-07-29T08:24:40;9.30;;;4.40;;
67757;SDS011;54562;47.620;18.786;2022-07-29T08:27:55;7.80;;;4.30;;
67757;SDS011;54562;47.620;18.786;2022-07-29T08:30:59;9.20;;;4.50;;
67757;SDS011;54562;47.620;18.786;2022-07-29T08:34:04;8.60;;;4.00;;
67757;SDS011;54562;47.620;18.786;2022-07-29T08:37:10;11.10;;;4.40;;
67757;SDS011;54562;47.620;18.786;2022-07-29T08:40:16;7.30;;;4.40;;
67757;SDS011;54562;47.620;18.786;2022-07-29T08:43:21;9.50;;;3.90;;
67757;SDS011;54562;47.620;18.786;2022-07-29T08:46:26;8.00;;;4.30;;
67757;SDS011;54562;47.620;18.786;2022-07-29T08:49:33;9.00;;;4.20;;
67757;SDS011;54562;47.620;18.786;2022-07-29T08:52:40;7.80;;;4.30;;
67757;SDS011;54562;47.620;18.786;2022-07-29T08:55:49;8.30;;;4.40;;
67757;SDS011;54562;47.620;18.786;2022-07-29T08:58:54;8.90;;;3.80;;
67757;SDS011;54562;47.620;18.786;2022-07-29T09:02:02;8.10;;;4.20;;
67757;SDS011;54562;47.620;18.786;2022-07-29T09:05:09;8.80;;;4.10;;
67757;SDS011;54562;47.620;18.786;2022-07-29T09:08:14;7.30;;;4.10;;
67757;SDS011;54562;47.620;18.786;2022-07-29T09:11:19;8.20;;;4.20;;
67757;SDS011;54562;47.620;18.786;2022-07-29T09:14:25;7.90;;;4.00;;
67757;SDS011;54562;47.620;18.786;2022-07-29T09:17:42;13.30;;;4.20;;
67757;SDS011;54562;47.620;18.786;2022-07-29T09:20:52;8.50;;;4.00;;
67757;SDS011;54562;47.620;18.786;2022-07-29T09:24:15;7.10;;;3.90;;
67757;SDS011;54562;47.620;18.786;2022-07-29T09:27:22;9.60;;;4.10;;
67757;SDS011;54562;47.620;18.786;2022-07-29T09:30:29;7.40;;;3.80;;
67757;SDS011;54562;47.620;18.786;2022-07-29T09:33:35;7.80;;;4.30;;
67757;SDS011;54562;47.620;18.786;2022-07-29T09:36:43;7.70;;;4.00;;
67757;SDS011;54562;47.620;18.786;2022-07-29T09:39:49;9.70;;;3.90;;
67757;SDS011;54562;47.620;18.786;2022-07-29T09:42:54;7.80;;;3.70;;
67757;SDS011;54562;47.620;18.786;2022-07-29T09:46:10;7.90;;;3.80;;
67757;SDS011;54562;47.620;18.786;2022-07-29T09:49:16;7.60;;;3.50;;
67757;SDS011;54562;47.620;18.786;2022-07-29T09:52:21;5.90;;;3.40;;
67757;SDS011;54562;47.620;18.786;2022-07-29T09:55:26;6.10;;;3.50;;
67757;SDS011;54562;47.620;18.786;2022-07-29T09:58:32;10.80;;;3.90;;
67757;SDS011;54562;47.620;18.786;2022-07-29T10:01:37;6.30;;;3.50;;
67757;SDS011;54562;47.620;18.786;2022-07-29T10:04:43;7.20;;;3.30;;
67757;SDS011;54562;47.620;18.786;2022-07-29T10:07:49;8.30;;;3.40;;
67757;SDS011;54562;47.620;18.786;2022-07-29T10:11:10;6.10;;;3.50;;
67757;SDS011;54562;47.620;18.786;2022-07-29T10:14:16;6.80;;;3.50;;
67757;SDS011;54562;47.620;18.786;2022-07-29T10:17:21;7.40;;;3.50;;
67757;SDS011;54562;47.620;18.786;2022-07-29T10:20:27;8.60;;;3.60;;
67757;SDS011;54562;47.620;18.786;2022-07-29T10:23:34;7.90;;;3.50;;
67757;SDS011;54562;47.620;18.786;2022-07-29T10:26:50;9.30;;;3.40;;
67757;SDS011;54562;47.620;18.786;2022-07-29T10:29:55;7.60;;;3.60;;
67757;SDS011;54562;47.620;18.786;2022-07-29T10:33:26;6.80;;;3.50;;
67757;SDS011;54562;47.620;18.786;2022-07-29T10:36:48;6.50;;;3.40;;
67757;SDS011;54562;47.620;18.786;2022-07-29T10:40:09;7.50;;;3.30;;
67757;SDS011;54562;47.620;18.786;2022-07-29T10:47:21;6.30;;;3.30;;
67757;SDS011;54562;47.620;18.786;2022-07-29T10:50:53;7.10;;;3.40;;
67757;SDS011;54562;47.620;18.786;2022-07-29T10:54:04;7.00;;;3.50;;
67757;SDS011;54562;47.620;18.786;2022-07-29T10:57:14;9.80;;;3.90;;
67757;SDS011;54562;47.620;18.786;2022-07-29T11:00:31;6.70;;;3.50;;
67757;SDS011;54562;47.620;18.786;2022-07-29T11:03:47;6.10;;;3.20;;
67757;SDS011;54562;47.620;18.786;2022-07-29T11:07:10;5.30;;;3.00;;
67757;SDS011;54562;47.620;18.786;2022-07-29T11:10:25;6.50;;;3.60;;
67757;SDS011;54562;47.620;18.786;2022-07-29T11:14:00;8.50;;;3.40;;
67757;SDS011;54562;47.620;18.786;2022-07-29T11:17:14;6.10;;;3.00;;
67757;SDS011;54562;47.620;18.786;2022-07-29T11:20:42;8.20;;;3.20;;
67757;SDS011;54562;47.620;18.786;2022-07-29T11:24:12;7.00;;;3.40;;
67757;SDS011;54562;47.620;18.786;2022-07-29T11:27:33;7.00;;;3.40;;
67757;SDS011;54562;47.620;18.786;2022-07-29T11:30:51;7.10;;;3.40;;
67757;SDS011;54562;47.620;18.786;2022-07-29T11:34:17;7.30;;;3.60;;
67757;SDS011;54562;47.620;18.786;2022-07-29T11:37:33;10.20;;;3.40;;
67757;SDS011;54562;47.620;18.786;2022-07-29T11:41:25;7.90;;;3.50;;
67757;SDS011;54562;47.620;18.786;2022-07-29T11:44:58;7.60;;;3.50;;
67757;SDS011;54562;47.620;18.786;2022-07-29T11:48:27;6.00;;;3.30;;
67757;SDS011;54562;47.620;18.786;2022-07-29T11:51:38;10.30;;;3.70;;
67757;SDS011;54562;47.620;18.786;2022-07-29T11:54:52;8.90;;;3.70;;
67757;SDS011;54562;47.620;18.786;2022-07-29T11:58:13;9.00;;;3.20;;
67757;SDS011;54562;47.620;18.786;2022-07-29T12:01:29;6.70;;;3.20;;
67757;SDS011;54562;47.620;18.786;2022-07-29T12:04:51;8.30;;;3.60;;
67757;SDS011;54562;47.620;18.786;2022-07-29T12:08:05;7.60;;;3.60;;
67757;SDS011;54562;47.620;18.786;2022-07-29T12:11:19;8.00;;;3.30;;
67757;SDS011;54562;47.620;18.786;2022-07-29T12:14:29;5.40;;;3.20;;
67757;SDS011;54562;47.620;18.786;2022-07-29T12:17:38;7.30;;;3.50;;
67757;SDS011;54562;47.620;18.786;2022-07-29T12:20:47;6.40;;;3.50;;
67757;SDS011;54562;47.620;18.786;2022-07-29T12:24:07;7.50;;;3.40;;
67757;SDS011;54562;47.620;18.786;2022-07-29T12:30:46;6.70;;;3.40;;
67757;SDS011;54562;47.620;18.786;2022-07-29T12:33:56;5.90;;;3.10;;
67757;SDS011;54562;47.620;18.786;2022-07-29T12:37:04;8.30;;;3.70;;
67757;SDS011;54562;47.620;18.786;2022-07-29T12:40:16;8.10;;;3.50;;
67757;SDS011;54562;47.620;18.786;2022-07-29T12:43:25;8.70;;;3.30;;
67757;SDS011;54562;47.620;18.786;2022-07-29T12:46:33;6.00;;;3.50;;
67757;SDS011;54562;47.620;18.786;2022-07-29T12:49:43;8.30;;;3.50;;
67757;SDS011;54562;47.620;18.786;2022-07-29T12:52:51;9.20;;;3.60;;
67757;SDS011;54562;47.620;18.786;2022-07-29T12:56:00;6.30;;;3.30;;
67757;SDS011;54562;47.620;18.786;2022-07-29T12:59:28;7.90;;;3.30;;
67757;SDS011;54562;47.620;18.786;2022-07-29T13:02:39;10.70;;;3.70;;
67757;SDS011;54562;47.620;18.786;2022-07-29T13:05:48;7.00;;;3.30;;
67757;SDS011;54562;47.620;18.786;2022-07-29T13:09:02;6.70;;;3.10;;
67757;SDS011;54562;47.620;18.786;2022-07-29T13:12:13;6.50;;;3.60;;
67757;SDS011;54562;47.620;18.786;2022-07-29T13:18:31;7.90;;;3.30;;
67757;SDS011;54562;47.620;18.786;2022-07-29T13:21:41;6.50;;;3.40;;
67757;SDS011;54562;47.620;18.786;2022-07-29T13:24:53;7.70;;;3.40;;
67757;SDS011;54562;47.620;18.786;2022-07-29T13:28:03;6.50;;;3.20;;
67757;SDS011;54562;47.620;18.786;2022-07-29T13:31:11;6.70;;;3.30;;
67757;SDS011;54562;47.620;18.786;2022-07-29T13:34:20;6.70;;;3.10;;
67757;SDS011;54562;47.620;18.786;2022-07-29T13:37:29;8.20;;;3.50;;
67757;SDS011;54562;47.620;18.786;2022-07-29T13:40:38;6.80;;;3.40;;
67757;SDS011;54562;47.620;18.786;2022-07-29T13:43:46;5.50;;;3.00;;
67757;SDS011;54562;47.620;18.786;2022-07-29T13:46:54;5.70;;;3.50;;
67757;SDS011;54562;47.620;18.786;2022-07-29T13:50:04;7.00;;;3.30;;
67757;SDS011;54562;47.620;18.786;2022-07-29T13:53:15;9.50;;;3.20;;
67757;SDS011;54562;47.620;18.786;2022-07-29T13:56:30;11.50;;;3.50;;
67757;SDS011;54562;47.620;18.786;2022-07-29T13:59:39;6.50;;;3.20;;
67757;SDS011;54562;47.620;18.786;2022-07-29T14:02:48;5.40;;;3.00;;
67757;SDS011;54562;47.620;18.786;2022-07-29T14:05:56;5.70;;;3.20;;
67757;SDS011;54562;47.620;18.786;2022-07-29T14:09:06;9.70;;;3.30;;
67757;SDS011;54562;47.620;18.786;2022-07-29T14:12:14;6.40;;;3.00;;
67757;SDS011;54562;47.620;18.786;2022-07-29T14:15:22;5.50;;;3.00;;
67757;SDS011;54562;47.620;18.786;2022-07-29T14:21:36;6.30;;;3.20;;
67757;SDS011;54562;47.620;18.786;2022-07-29T14:24:45;7.30;;;3.70;;
67757;SDS011;54562;47.620;18.786;2022-07-29T14:27:53;7.40;;;3.20;;
67757;SDS011;54562;47.620;18.786;2022-07-29T14:31:02;5.40;;;3.20;;
67757;SDS011;54562;47.620;18.786;2022-07-29T14:34:10;5.90;;;3.30;;
67757;SDS011;54562;47.620;18.786;2022-07-29T14:37:17;6.10;;;3.10;;
67757;SDS011;54562;47.620;18.786;2022-07-29T14:40:25;5.80;;;3.10;;
67757;SDS011;54562;47.620;18.786;2022-07-29T14:43:34;8.50;;;3.20;;
67757;SDS011;54562;47.620;18.786;2022-07-29T14:46:42;8.00;;;3.30;;
67757;SDS011;54562;47.620;18.786;2022-07-29T14:49:53;5.60;;;3.20;;
67757;SDS011;54562;47.620;18.786;2022-07-29T14:53:01;7.00;;;3.40;;
67757;SDS011;54562;47.620;18.786;2022-07-29T14:59:35;6.10;;;3.10;;
67757;SDS011;54562;47.620;18.786;2022-07-29T15:02:43;7.70;;;3.50;;
67757;SDS011;54562;47.620;18.786;2022-07-29T15:06:07;9.10;;;3.30;;
67757;SDS011;54562;47.620;18.786;2022-07-29T15:09:15;6.90;;;3.40;;
67757;SDS011;54562;47.620;18.786;2022-07-29T15:12:23;6.80;;;4.00;;
67757;SDS011;54562;47.620;18.786;2022-07-29T15:15:31;7.70;;;4.40;;
67757;SDS011;54562;47.620;18.786;2022-07-29T15:18:39;7.90;;;5.00;;
67757;SDS011;54562;47.620;18.786;2022-07-29T15:21:46;8.70;;;4.00;;
67757;SDS011;54562;47.620;18.786;2022-07-29T15:24:55;6.90;;;3.00;;
67757;SDS011;54562;47.620;18.786;2022-07-29T15:28:03;5.30;;;3.10;;
67757;SDS011;54562;47.620;18.786;2022-07-29T15:31:13;6.80;;;3.10;;
67757;SDS011;54562;47.620;18.786;2022-07-29T15:34:21;5.60;;;3.40;;
67757;SDS011;54562;47.620;18.786;2022-07-29T15:37:29;6.80;;;3.40;;
67757;SDS011;54562;47.620;18.786;2022-07-29T15:40:53;6.30;;;3.50;;
67757;SDS011;54562;47.620;18.786;2022-07-29T15:44:01;8.20;;;3.30;;
67757;SDS011;54562;47.620;18.786;2022-07-29T15:47:09;9.00;;;3.60;;
67757;SDS011;54562;47.620;18.786;2022-07-29T15:50:20;11.40;;;3.50;;
67757;SDS011;54562;47.620;18.786;2022-07-29T15:53:28;7.40;;;3.40;;
67757;SDS011;54562;47.620;18.786;2022-07-29T15:56:38;6.60;;;3.40;;
67757;SDS011;54562;47.620;18.786;2022-07-29T15:59:46;6.60;;;3.40;;
67757;SDS011;54562;47.620;18.786;2022-07-29T16:02:55;8.60;;;3.60;;
67757;SDS011;54562;47.620;18.786;2022-07-29T16:06:04;6.50;;;3.50;;
67757;SDS011;54562;47.620;18.786;2022-07-29T16:09:12;8.10;;;3.60;;
67757;SDS011;54562;47.620;18.786;2022-07-29T16:12:21;7.10;;;3.80;;
67757;SDS011;54562;47.620;18.786;2022-07-29T16:18:35;6.80;;;3.50;;
67757;SDS011;54562;47.620;18.786;2022-07-29T16:21:43;8.90;;;3.70;;
67757;SDS011;54562;47.620;18.786;2022-07-29T16:24:51;7.00;;;3.90;;
67757;SDS011;54562;47.620;18.786;2022-07-29T16:27:59;10.20;;;3.80;;
67757;SDS011;54562;47.620;18.786;2022-07-29T16:31:07;7.30;;;3.30;;
67757;SDS011;54562;47.620;18.786;2022-07-29T16:34:15;6.80;;;3.40;;
67757;SDS011;54562;47.620;18.786;2022-07-29T16:37:23;7.00;;;3.60;;
67757;SDS011;54562;47.620;18.786;2022-07-29T16:40:37;7.90;;;3.50;;
67757;SDS011;54562;47.620;18.786;2022-07-29T16:43:45;6.40;;;3.70;;
67757;SDS011;54562;47.620;18.786;2022-07-29T16:46:53;8.30;;;3.80;;
67757;SDS011;54562;47.620;18.786;2022-07-29T16:50:04;7.70;;;3.70;;
67757;SDS011;54562;47.620;18.786;2022-07-29T16:53:13;6.10;;;3.60;;
67757;SDS011;54562;47.620;18.786;2022-07-29T16:56:21;7.00;;;3.60;;
67757;SDS011;54562;47.620;18.786;2022-07-29T16:59:30;93.70;;;6.30;;
67757;SDS011;54562;47.620;18.786;2022-07-29T17:02:47;14.00;;;4.20;;
67757;SDS011;54562;47.620;18.786;2022-07-29T17:05:55;6.80;;;3.50;;
67757;SDS011;54562;47.620;18.786;2022-07-29T17:09:05;10.90;;;4.10;;
67757;SDS011;54562;47.620;18.786;2022-07-29T17:12:13;8.30;;;3.60;;
67757;SDS011;54562;47.620;18.786;2022-07-29T17:15:21;6.30;;;3.60;;
67757;SDS011;54562;47.620;18.786;2022-07-29T17:18:30;7.30;;;3.70;;
67757;SDS011;54562;47.620;18.786;2022-07-29T17:21:37;7.10;;;3.80;;
67757;SDS011;54562;47.620;18.786;2022-07-29T17:24:53;12.20;;;3.80;;
67757;SDS011;54562;47.620;18.786;2022-07-29T17:28:00;10.20;;;3.30;;
67757;SDS011;54562;47.620;18.786;2022-07-29T17:31:09;6.80;;;3.50;;
67757;SDS011;54562;47.620;18.786;2022-07-29T17:34:17;18.20;;;4.20;;
67757;SDS011;54562;47.620;18.786;2022-07-29T17:37:26;10.00;;;4.90;;
67757;SDS011;54562;47.620;18.786;2022-07-29T17:40:34;10.20;;;7.30;;
67757;SDS011;54562;47.620;18.786;2022-07-29T17:43:42;12.00;;;4.70;;
67757;SDS011;54562;47.620;18.786;2022-07-29T17:46:50;10.80;;;3.90;;
67757;SDS011;54562;47.620;18.786;2022-07-29T17:49:59;7.90;;;3.90;;
67757;SDS011;54562;47.620;18.786;2022-07-29T17:53:07;12.00;;;3.90;;
67757;SDS011;54562;47.620;18.786;2022-07-29T17:56:20;7.50;;;3.40;;
67757;SDS011;54562;47.620;18.786;2022-07-29T17:59:28;8.30;;;3.60;;
67757;SDS011;54562;47.620;18.786;2022-07-29T18:02:36;8.80;;;3.80;;
67757;SDS011;54562;47.620;18.786;2022-07-29T18:05:44;7.20;;;3.80;;
67757;SDS011;54562;47.620;18.786;2022-07-29T18:08:53;7.20;;;3.80;;
67757;SDS011;54562;47.620;18.786;2022-07-29T18:12:01;9.10;;;4.50;;
67757;SDS011;54562;47.620;18.786;2022-07-29T18:15:10;6.80;;;4.00;;
67757;SDS011;54562;47.620;18.786;2022-07-29T18:21:25;7.30;;;3.50;;
67757;SDS011;54562;47.620;18.786;2022-07-29T18:24:53;7.70;;;4.90;;
67757;SDS011;54562;47.620;18.786;2022-07-29T18:28:01;6.80;;;4.40;;
67757;SDS011;54562;47.620;18.786;2022-07-29T18:34:17;7.50;;;3.90;;
67757;SDS011;54562;47.620;18.786;2022-07-29T18:37:25;8.60;;;3.70;;
67757;SDS011;54562;47.620;18.786;2022-07-29T18:40:53;7.80;;;3.90;;
67757;SDS011;54562;47.620;18.786;2022-07-29T18:44:01;6.90;;;3.50;;
67757;SDS011;54562;47.620;18.786;2022-07-29T18:47:10;11.70;;;3.60;;
67757;SDS011;54562;47.620;18.786;2022-07-29T18:50:17;7.50;;;3.50;;
67757;SDS011;54562;47.620;18.786;2022-07-29T18:53:33;8.40;;;3.60;;
67757;SDS011;54562;47.620;18.786;2022-07-29T18:56:41;6.10;;;3.60;;
67757;SDS011;54562;47.620;18.786;2022-07-29T18:59:49;7.10;;;3.60;;
67757;SDS011;54562;47.620;18.786;2022-07-29T19:02:58;8.00;;;3.60;;
67757;SDS011;54562;47.620;18.786;2022-07-29T19:06:07;10.40;;;4.30;;
67757;SDS011;54562;47.620;18.786;2022-07-29T19:09:15;7.10;;;3.90;;
67757;SDS011;54562;47.620;18.786;2022-07-29T19:12:23;8.00;;;3.70;;